createdAt,value
2023-05-10T00:03:34.486Z,7.30
2023-05-10T00:06:03.872Z,7.31
2023-05-10T00:08:32.511Z,7.54
2023-05-10T00:11:00.779Z,7.67
2023-05-10T00:13:29.584Z,7.69
2023-05-10T00:15:58.137Z,7.47
2023-05-10T00:18:25.904Z,7.35
2023-05-10T00:20:53.997Z,7.45
2023-05-10T00:23:23.357Z,7.33
2023-05-10T00:25:53.389Z,7.34
2023-05-10T00:28:35.136Z,7.28
2023-05-10T00:31:07.804Z,7.23
2023-05-10T00:33:36.425Z,7.09
2023-05-10T00:36:04.475Z,7.12
2023-05-10T00:38:33.072Z,7.17
2023-05-10T00:41:01.066Z,7.33
2023-05-10T00:43:35.531Z,7.37
2023-05-10T00:46:07.541Z,7.19
2023-05-10T00:48:39.712Z,7.17
2023-05-10T00:51:08.299Z,7.28
2023-05-10T00:53:38.637Z,7.25
2023-05-10T00:56:07.937Z,7.42
2023-05-10T00:58:37.791Z,7.35
2023-05-10T01:01:08.569Z,7.06
2023-05-10T01:03:39.132Z,7.10
2023-05-10T01:06:11.547Z,6.83
2023-05-10T01:08:42.353Z,6.73
2023-05-10T01:11:18.798Z,6.44
2023-05-10T01:13:54.220Z,6.53
2023-05-10T01:16:31.963Z,6.31
2023-05-10T01:19:00.843Z,6.21
2023-05-10T01:21:40.894Z,6.31
2023-05-10T01:24:24.148Z,6.08
2023-05-10T01:27:19.913Z,5.99
2023-05-10T01:30:09.243Z,6.18
2023-05-10T01:33:04.508Z,6.18
2023-05-10T01:35:42.025Z,5.83
2023-05-10T01:38:22.416Z,6.08
2023-05-10T01:41:11.111Z,6.31
2023-05-10T01:44:07.013Z,6.49
2023-05-10T01:46:40.248Z,6.16
2023-05-10T01:49:13.483Z,6.11
2023-05-10T01:51:57.041Z,6.26
2023-05-10T01:54:31.561Z,6.25
2023-05-10T01:57:10.393Z,6.27
2023-05-10T01:59:42.408Z,6.21
2023-05-10T02:02:13.782Z,6.04
2023-05-10T02:04:44.040Z,5.88
2023-05-10T02:07:13.777Z,6.06
2023-05-10T02:09:45.859Z,5.90
2023-05-10T02:12:15.425Z,5.90
2023-05-10T02:14:45.531Z,5.92
2023-05-10T02:17:14.690Z,5.84
2023-05-10T02:19:44.758Z,5.96
2023-05-10T02:22:15.318Z,5.90
2023-05-10T02:24:45.145Z,5.87
2023-05-10T02:27:15.250Z,5.75
2023-05-10T02:29:45.302Z,5.76
2023-05-10T02:32:14.218Z,5.98
2023-05-10T02:34:43.211Z,6.01
2023-05-10T02:37:12.029Z,6.14
2023-05-10T02:39:45.127Z,5.87
2023-05-10T02:42:24.238Z,5.90
2023-05-10T02:44:54.668Z,5.84
2023-05-10T02:47:22.441Z,5.57
2023-05-10T02:49:51.222Z,5.82
2023-05-10T02:52:30.501Z,5.87
2023-05-10T02:55:04.466Z,5.73
2023-05-10T02:57:42.825Z,5.80
2023-05-10T03:00:13.757Z,5.86
2023-05-10T03:02:43.326Z,5.97
2023-05-10T03:05:11.429Z,5.98
2023-05-10T03:07:38.915Z,5.99
2023-05-10T03:10:07.714Z,5.77
2023-05-10T03:12:59.765Z,5.77
2023-05-10T03:15:53.062Z,5.71
2023-05-10T03:18:31.070Z,5.36
2023-05-10T03:21:10.190Z,5.40
2023-05-10T03:23:46.354Z,5.43
2023-05-10T03:26:30.319Z,5.57
2023-05-10T03:29:13.843Z,5.53
2023-05-10T03:31:43.461Z,5.55
2023-05-10T03:34:11.889Z,5.70
2023-05-10T03:36:40.445Z,5.78
2023-05-10T03:39:08.563Z,5.66
2023-05-10T03:41:36.759Z,5.08
2023-05-10T03:44:07.759Z,5.46
2023-05-10T03:46:36.452Z,5.51
2023-05-10T03:49:10.575Z,5.44
2023-05-10T03:51:38.507Z,5.59
2023-05-10T03:54:07.148Z,5.55
2023-05-10T03:56:35.553Z,5.37
2023-05-10T03:59:11.594Z,5.30
2023-05-10T04:01:48.641Z,5.45
2023-05-10T04:04:17.392Z,5.27
2023-05-10T04:06:46.884Z,5.39
2023-05-10T04:09:19.214Z,5.52
2023-05-10T04:11:47.358Z,5.60
2023-05-10T04:14:15.698Z,5.71
2023-05-10T04:16:47.390Z,5.83
2023-05-10T04:19:15.537Z,5.83
2023-05-10T04:21:43.797Z,5.96
2023-05-10T04:24:13.529Z,6.03
2023-05-10T04:26:42.143Z,6.13
2023-05-10T04:29:14.355Z,6.05
2023-05-10T04:31:42.193Z,6.23
2023-05-10T04:34:15.373Z,6.47
2023-05-10T04:36:43.727Z,6.55
2023-05-10T04:39:12.466Z,6.54
2023-05-10T04:41:40.854Z,6.71
2023-05-10T04:44:11.766Z,6.87
2023-05-10T04:46:40.768Z,6.99
2023-05-10T04:49:09.327Z,7.10
2023-05-10T04:51:37.532Z,7.27
2023-05-10T04:54:06.916Z,7.64
2023-05-10T04:56:35.388Z,7.88
2023-05-10T04:59:05.274Z,8.13
2023-05-10T05:01:34.067Z,7.92
2023-05-10T05:04:02.724Z,7.99
2023-05-10T05:06:31.189Z,8.31
2023-05-10T05:09:00.392Z,8.24
2023-05-10T05:11:29.071Z,8.37
2023-05-10T05:14:00.611Z,8.26
2023-05-10T05:16:32.010Z,8.69
2023-05-10T05:19:13.236Z,8.80
2023-05-10T05:21:44.238Z,9.11
2023-05-10T05:24:14.009Z,9.30
2023-05-10T05:26:41.428Z,9.24
2023-05-10T05:29:12.186Z,9.67
2023-05-10T05:31:40.164Z,9.59
2023-05-10T05:34:07.940Z,9.76
2023-05-10T05:36:41.613Z,10.17
2023-05-10T05:39:12.384Z,10.02
2023-05-10T05:41:39.473Z,10.40
2023-05-10T05:44:08.912Z,9.92
2023-05-10T05:46:37.130Z,10.37
2023-05-10T05:49:06.372Z,10.39
2023-05-10T05:51:36.810Z,10.75
2023-05-10T05:54:06.212Z,10.39
2023-05-10T05:56:34.659Z,10.82
2023-05-10T05:59:04.238Z,11.15
2023-05-10T06:01:37.035Z,11.43
2023-05-10T06:04:07.756Z,10.55
2023-05-10T06:06:39.196Z,10.90
2023-05-10T06:09:06.847Z,10.81
2023-05-10T06:11:35.514Z,11.41
2023-05-10T06:14:06.425Z,11.59
2023-05-10T06:16:35.615Z,12.02
2023-05-10T06:19:04.452Z,12.17
2023-05-10T06:21:33.702Z,12.14
2023-05-10T06:24:01.858Z,12.32
2023-05-10T06:26:30.149Z,12.43
2023-05-10T06:29:07.145Z,12.06
2023-05-10T06:31:35.914Z,12.08
2023-05-10T06:34:08.356Z,12.53
2023-05-10T06:36:38.155Z,12.64
2023-05-10T06:39:07.372Z,13.15
2023-05-10T06:41:39.499Z,12.83
2023-05-10T06:44:11.833Z,13.37
2023-05-10T06:46:43.565Z,13.36
2023-05-10T06:49:11.710Z,13.42
2023-05-10T06:51:40.355Z,12.85
2023-05-10T06:54:09.140Z,12.49
2023-05-10T06:56:48.304Z,12.62
2023-05-10T06:59:50.470Z,12.85
2023-05-10T07:02:20.105Z,12.63
2023-05-10T07:04:49.154Z,13.51
2023-05-10T07:07:20.367Z,12.90
2023-05-10T07:09:48.345Z,13.38
2023-05-10T07:12:16.652Z,14.44
2023-05-10T07:14:46.547Z,15.27
2023-05-10T07:17:15.071Z,14.82
2023-05-10T07:19:46.244Z,14.73
2023-05-10T07:22:14.546Z,14.48
2023-05-10T07:24:42.457Z,15.16
2023-05-10T07:27:10.817Z,15.43
2023-05-10T07:29:42.118Z,14.96
2023-05-10T07:32:12.026Z,15.88
2023-05-10T07:34:45.487Z,15.53
2023-05-10T07:37:13.954Z,15.34
2023-05-10T07:39:45.041Z,15.82
2023-05-10T07:42:15.541Z,15.06
2023-05-10T07:44:43.495Z,15.58
2023-05-10T07:47:14.986Z,15.25
2023-05-10T07:49:43.475Z,15.27
2023-05-10T07:52:11.458Z,15.72
2023-05-10T07:54:39.304Z,15.22
2023-05-10T07:57:07.865Z,14.95
2023-05-10T07:59:36.589Z,15.59
2023-05-10T08:02:04.641Z,15.69
2023-05-10T08:04:32.547Z,16.04
2023-05-10T08:07:00.844Z,15.50
2023-05-10T08:09:29.769Z,15.02
2023-05-10T08:12:00.120Z,15.90
2023-05-10T08:14:31.335Z,16.44
2023-05-10T08:16:59.389Z,15.91
2023-05-10T08:19:29.696Z,16.15
2023-05-10T08:21:58.601Z,16.90
2023-05-10T08:24:27.268Z,15.76
2023-05-10T08:26:55.619Z,17.16
2023-05-10T08:29:24.001Z,16.08
2023-05-10T08:31:52.524Z,16.63
2023-05-10T08:34:22.254Z,17.91
2023-05-10T08:36:52.508Z,17.41
2023-05-10T08:39:29.707Z,17.80
2023-05-10T08:42:03.512Z,16.92
2023-05-10T08:44:34.014Z,17.23
2023-05-10T08:47:06.609Z,16.77
2023-05-10T08:49:35.486Z,17.43
2023-05-10T08:52:09.434Z,17.14
2023-05-10T08:54:38.355Z,16.81
2023-05-10T08:57:06.393Z,16.79
2023-05-10T08:59:34.508Z,16.80
2023-05-10T09:02:06.926Z,17.05
2023-05-10T09:04:37.989Z,17.13
2023-05-10T09:07:05.375Z,17.01
2023-05-10T09:09:36.162Z,17.26
2023-05-10T09:12:04.805Z,18.11
2023-05-10T09:14:36.494Z,18.15
2023-05-10T09:17:05.954Z,17.56
2023-05-10T09:19:34.018Z,17.27
2023-05-10T09:22:03.560Z,18.62
2023-05-10T09:24:32.597Z,19.11
2023-05-10T09:27:01.859Z,19.49
2023-05-10T09:29:41.723Z,18.63
2023-05-10T09:32:09.860Z,18.56
2023-05-10T09:34:41.283Z,18.74
2023-05-10T09:37:09.977Z,19.40
2023-05-10T09:39:43.862Z,19.41
2023-05-10T09:42:12.607Z,18.95
2023-05-10T09:44:44.445Z,18.70
2023-05-10T09:47:20.134Z,18.58
2023-05-10T09:49:52.783Z,19.15
2023-05-10T09:52:20.217Z,19.43
2023-05-10T09:54:55.053Z,20.76
2023-05-10T09:57:23.810Z,21.33
2023-05-10T09:59:52.328Z,20.66
2023-05-10T10:02:21.650Z,19.39
2023-05-10T10:04:58.057Z,19.45
2023-05-10T10:07:28.424Z,19.78
2023-05-10T10:09:57.657Z,18.42
2023-05-10T10:12:29.877Z,19.65
2023-05-10T10:14:58.848Z,19.18
2023-05-10T10:17:29.864Z,18.97
2023-05-10T10:20:00.456Z,20.93
2023-05-10T10:22:29.058Z,21.24
2023-05-10T10:24:57.953Z,22.12
2023-05-10T10:28:14.494Z,19.45
2023-05-10T10:30:52.872Z,20.23
2023-05-10T10:33:46.265Z,20.52
2023-05-10T10:36:56.466Z,21.97
2023-05-10T10:39:28.418Z,21.26
2023-05-10T10:41:57.874Z,22.65
2023-05-10T10:44:40.251Z,22.74
2023-05-10T10:47:19.582Z,23.56
2023-05-10T10:49:51.256Z,21.83
2023-05-10T10:52:21.632Z,21.27
2023-05-10T10:54:52.407Z,22.56
2023-05-10T10:57:22.734Z,23.21
2023-05-10T10:59:50.143Z,23.81
2023-05-10T11:02:47.369Z,22.85
2023-05-10T11:05:36.271Z,23.23
2023-05-10T11:08:13.641Z,22.24
2023-05-10T11:10:41.866Z,22.24
2023-05-10T11:13:11.158Z,22.26
2023-05-10T11:15:51.693Z,20.44
2023-05-10T11:18:25.710Z,20.55
2023-05-10T11:20:57.470Z,22.05
2023-05-10T11:23:32.940Z,22.44
2023-05-10T11:26:04.629Z,22.32
2023-05-10T11:28:31.956Z,22.37
2023-05-10T11:30:59.133Z,22.11
2023-05-10T11:33:26.116Z,21.92
2023-05-10T11:35:54.716Z,22.20
2023-05-10T11:38:23.452Z,22.81
2023-05-10T11:40:55.336Z,22.26
2023-05-10T11:43:29.411Z,22.09
2023-05-10T11:45:56.525Z,21.85
2023-05-10T11:48:25.034Z,20.45
2023-05-10T11:50:52.166Z,20.92
2023-05-10T11:53:21.468Z,20.84
2023-05-10T11:55:50.013Z,22.01
2023-05-10T11:58:20.270Z,22.20
2023-05-10T12:00:47.815Z,21.46
2023-05-10T12:03:14.772Z,20.45
2023-05-10T12:05:43.259Z,20.18
2023-05-10T12:08:17.524Z,20.85
2023-05-10T12:10:44.516Z,21.09
2023-05-10T12:13:16.377Z,19.47
2023-05-10T12:15:44.749Z,19.57
2023-05-10T12:18:12.843Z,19.65
2023-05-10T12:20:41.288Z,20.12
2023-05-10T12:23:11.053Z,19.48
2023-05-10T12:25:39.250Z,19.79
2023-05-10T12:28:08.417Z,20.61
2023-05-10T12:30:36.998Z,20.27
2023-05-10T12:33:09.926Z,19.25
2023-05-10T12:35:47.814Z,18.59
2023-05-10T12:38:30.466Z,17.79
2023-05-10T12:41:06.101Z,18.30
2023-05-10T12:43:34.120Z,18.73
2023-05-10T12:46:12.404Z,18.36
2023-05-10T12:48:41.112Z,18.34
2023-05-10T12:51:14.457Z,19.13
2023-05-10T12:53:44.604Z,19.35
2023-05-10T12:56:12.745Z,18.99
2023-05-10T12:58:39.671Z,19.75
2023-05-10T13:01:07.086Z,20.32
2023-05-10T13:03:34.351Z,20.50
2023-05-10T13:06:04.333Z,20.30
2023-05-10T13:08:34.652Z,19.93
2023-05-10T13:11:03.321Z,19.15
2023-05-10T13:13:30.488Z,19.37
2023-05-10T13:15:58.255Z,18.83
2023-05-10T13:18:28.713Z,20.13
2023-05-10T13:20:57.782Z,20.29
2023-05-10T13:23:25.387Z,20.26
2023-05-10T13:25:52.234Z,20.58
2023-05-10T13:28:19.452Z,20.72
2023-05-10T13:30:46.332Z,20.50
2023-05-10T13:33:13.341Z,19.96
2023-05-10T13:35:40.786Z,20.37
2023-05-10T13:38:09.358Z,19.78
2023-05-10T13:40:37.254Z,20.40
2023-05-10T13:43:06.325Z,19.78
2023-05-10T13:45:34.133Z,18.98
2023-05-10T13:48:01.177Z,19.26
2023-05-10T13:50:28.268Z,18.97
2023-05-10T13:52:55.698Z,18.37
2023-05-10T13:55:23.364Z,18.94
2023-05-10T13:57:52.974Z,18.98
2023-05-10T14:00:20.203Z,20.17
2023-05-10T14:02:47.064Z,19.17
2023-05-10T14:05:14.158Z,18.87
2023-05-10T14:07:42.265Z,18.97
2023-05-10T14:10:09.552Z,18.62
2023-05-10T14:12:36.341Z,19.00
2023-05-10T14:15:04.160Z,19.19
2023-05-10T14:17:31.425Z,18.71
2023-05-10T14:19:58.612Z,18.46
2023-05-10T14:22:25.529Z,18.12
2023-05-10T14:24:52.433Z,18.15
2023-05-10T14:27:19.618Z,18.30
2023-05-10T14:29:46.722Z,18.03
2023-05-10T14:32:13.810Z,17.87
2023-05-10T14:34:40.757Z,17.42
2023-05-10T14:37:07.704Z,17.32
2023-05-10T14:39:35.247Z,17.49
2023-05-10T14:42:03.703Z,17.77
2023-05-10T14:44:33.655Z,17.36
2023-05-10T14:47:01.448Z,17.68
2023-05-10T14:49:30.775Z,17.76
2023-05-10T14:51:59.985Z,17.73
2023-05-10T14:54:29.720Z,18.11
2023-05-10T14:56:57.929Z,18.49
2023-05-10T14:59:24.947Z,17.93
2023-05-10T15:01:52.680Z,17.55
2023-05-10T15:04:19.996Z,16.94
2023-05-10T15:06:47.334Z,17.20
2023-05-10T15:09:14.169Z,16.70
2023-05-10T15:11:41.149Z,17.21
2023-05-10T15:14:08.311Z,17.47
2023-05-10T15:16:36.254Z,17.05
2023-05-10T15:19:05.821Z,16.86
2023-05-10T15:21:38.700Z,17.16
2023-05-10T15:24:07.268Z,16.94
2023-05-10T15:26:34.702Z,17.55
2023-05-10T15:29:02.344Z,17.04
2023-05-10T15:31:29.700Z,17.31
2023-05-10T15:34:02.755Z,17.45
2023-05-10T15:36:29.831Z,17.84
2023-05-10T15:38:57.095Z,17.91
2023-05-10T15:41:24.752Z,17.24
2023-05-10T15:43:51.729Z,17.46
2023-05-10T15:46:18.635Z,18.01
2023-05-10T15:48:45.479Z,17.90
2023-05-10T15:51:12.760Z,17.61
2023-05-10T15:53:46.519Z,17.53
2023-05-10T15:56:20.170Z,17.67
2023-05-10T15:58:47.278Z,18.17
2023-05-10T16:01:15.200Z,17.99
2023-05-10T16:03:42.094Z,18.34
2023-05-10T16:06:10.127Z,17.92
2023-05-10T16:08:37.580Z,17.97
2023-05-10T16:11:04.514Z,17.72
2023-05-10T16:13:31.405Z,18.01
2023-05-10T16:15:58.571Z,17.88
2023-05-10T16:18:26.020Z,17.92
2023-05-10T16:20:54.425Z,17.51
2023-05-10T16:23:22.116Z,17.43
2023-05-10T16:25:49.383Z,18.00
2023-05-10T16:28:16.351Z,17.97
2023-05-10T16:30:43.858Z,17.89
2023-05-10T16:33:11.079Z,17.39
2023-05-10T16:35:38.962Z,16.84
2023-05-10T16:38:06.150Z,16.56
2023-05-10T16:40:33.664Z,16.73
2023-05-10T16:43:02.563Z,16.35
2023-05-10T16:45:32.417Z,16.50
2023-05-10T16:47:59.496Z,16.23
2023-05-10T16:50:26.342Z,16.22
2023-05-10T16:52:53.251Z,16.63
2023-05-10T16:55:20.677Z,16.43
2023-05-10T16:57:48.286Z,16.30
2023-05-10T17:00:16.480Z,15.93
2023-05-10T17:02:44.176Z,16.10
2023-05-10T17:05:11.344Z,15.97
2023-05-10T17:07:38.684Z,16.02
2023-05-10T17:10:06.310Z,16.09
2023-05-10T17:12:33.881Z,16.07
2023-05-10T17:15:00.724Z,16.10
2023-05-10T17:17:27.853Z,15.72
2023-05-10T17:19:55.231Z,15.78
2023-05-10T17:22:22.243Z,15.98
2023-05-10T17:24:49.519Z,15.62
2023-05-10T17:27:16.624Z,15.50
2023-05-10T17:29:43.898Z,15.66
2023-05-10T17:32:11.166Z,15.51
2023-05-10T17:34:39.488Z,15.65
2023-05-10T17:37:09.607Z,15.60
2023-05-10T17:39:38.677Z,15.46
2023-05-10T17:42:07.643Z,15.69
2023-05-10T17:44:34.677Z,15.78
2023-05-10T17:47:01.721Z,15.52
2023-05-10T17:49:29.101Z,15.07
2023-05-10T17:51:56.173Z,15.46
2023-05-10T17:54:23.692Z,15.52
2023-05-10T17:56:50.672Z,15.62
2023-05-10T17:59:17.987Z,15.61
2023-05-10T18:01:45.024Z,15.54
2023-05-10T18:04:12.236Z,14.60
2023-05-10T18:06:39.514Z,14.84
2023-05-10T18:09:11.229Z,14.21
2023-05-10T18:11:40.599Z,14.26
2023-05-10T18:14:07.833Z,13.87
2023-05-10T18:16:35.120Z,14.37
2023-05-10T18:19:02.605Z,13.97
2023-05-10T18:21:30.372Z,13.45
2023-05-10T18:23:58.451Z,12.96
2023-05-10T18:26:26.479Z,13.21
2023-05-10T18:28:53.777Z,13.43
2023-05-10T18:31:21.107Z,13.46
2023-05-10T18:33:48.538Z,13.44
2023-05-10T18:36:17.659Z,13.88
2023-05-10T18:38:45.859Z,13.26
2023-05-10T18:41:14.692Z,13.52
2023-05-10T18:43:43.098Z,13.44
2023-05-10T18:46:11.160Z,13.76
2023-05-10T18:48:39.030Z,13.53
2023-05-10T18:51:07.166Z,13.15
2023-05-10T18:53:34.302Z,13.28
2023-05-10T18:56:01.681Z,12.95
2023-05-10T18:58:30.014Z,13.36
2023-05-10T19:00:58.649Z,13.46
2023-05-10T19:03:25.699Z,13.71
2023-05-10T19:05:52.539Z,13.75
2023-05-10T19:08:19.586Z,13.66
2023-05-10T19:10:46.718Z,13.64
2023-05-10T19:13:15.086Z,13.12
2023-05-10T19:15:42.152Z,13.03
2023-05-10T19:18:09.902Z,13.02
2023-05-10T19:20:41.714Z,12.83
2023-05-10T19:23:10.465Z,12.88
2023-05-10T19:25:39.932Z,12.68
2023-05-10T19:28:07.208Z,12.43
2023-05-10T19:30:35.222Z,12.21
2023-05-10T19:33:05.445Z,12.20
2023-05-10T19:35:32.752Z,12.21
2023-05-10T19:38:00.014Z,12.44
2023-05-10T19:40:27.838Z,12.56
2023-05-10T19:42:57.537Z,12.46
2023-05-10T19:45:24.842Z,12.35
2023-05-10T19:47:52.195Z,12.39
2023-05-10T19:50:19.684Z,12.39
2023-05-10T19:52:46.849Z,12.43
2023-05-10T19:55:25.351Z,12.64
2023-05-10T19:57:53.367Z,12.71
2023-05-10T20:00:21.149Z,12.85
2023-05-10T20:02:49.573Z,12.99
2023-05-10T20:05:17.034Z,13.02
2023-05-10T20:07:44.627Z,13.10
2023-05-10T20:10:12.039Z,13.23
2023-05-10T20:12:39.479Z,12.99
2023-05-10T20:15:08.319Z,13.04
2023-05-10T20:17:36.090Z,13.25
2023-05-10T20:20:04.084Z,13.33
2023-05-10T20:22:31.008Z,13.51
2023-05-10T20:24:59.703Z,13.53
2023-05-10T20:27:30.694Z,13.53
2023-05-10T20:29:59.915Z,13.66
2023-05-10T20:32:28.498Z,13.71
2023-05-10T20:34:55.757Z,13.74
2023-05-10T20:37:23.631Z,13.81
2023-05-10T20:39:50.664Z,13.87
2023-05-10T20:42:18.641Z,13.62
2023-05-10T20:44:47.872Z,13.76
2023-05-10T20:47:16.098Z,13.82
2023-05-10T20:49:43.791Z,13.76
2023-05-10T20:52:11.063Z,13.81
2023-05-10T20:54:39.672Z,13.68
2023-05-10T20:57:06.975Z,13.51
2023-05-10T20:59:34.141Z,13.58
2023-05-10T21:02:01.367Z,13.67
2023-05-10T21:04:29.798Z,13.76
2023-05-10T21:06:59.802Z,13.81
2023-05-10T21:09:27.337Z,13.76
2023-05-10T21:11:54.641Z,13.79
2023-05-10T21:14:22.195Z,13.80
2023-05-10T21:16:51.506Z,13.90
2023-05-10T21:19:19.826Z,14.08
2023-05-10T21:21:47.585Z,13.74
2023-05-10T21:24:15.550Z,13.79
2023-05-10T21:26:43.333Z,13.81
2023-05-10T21:29:10.532Z,13.75
2023-05-10T21:31:37.990Z,13.92
2023-05-10T21:34:05.112Z,14.00
2023-05-10T21:36:32.696Z,13.61
2023-05-10T21:38:59.956Z,13.76
2023-05-10T21:41:26.926Z,13.73
2023-05-10T21:43:53.975Z,13.78
2023-05-10T21:46:21.134Z,13.65
2023-05-10T21:48:48.139Z,13.79
2023-05-10T21:51:15.206Z,13.83
2023-05-10T21:53:42.164Z,13.83
2023-05-10T21:56:09.552Z,13.82
2023-05-10T21:58:36.629Z,14.03
2023-05-10T22:01:03.921Z,14.05
2023-05-10T22:03:31.150Z,13.86
2023-05-10T22:05:58.836Z,13.86
2023-05-10T22:08:26.174Z,13.94
2023-05-10T22:10:53.257Z,14.13
2023-05-10T22:13:20.484Z,14.12
2023-05-10T22:15:47.372Z,14.27
2023-05-10T22:18:14.329Z,14.27
2023-05-10T22:20:41.247Z,14.25
2023-05-10T22:23:08.668Z,14.31
2023-05-10T22:25:35.717Z,14.26
2023-05-10T22:28:02.810Z,14.32
2023-05-10T22:30:31.510Z,14.35
2023-05-10T22:33:00.205Z,14.28
2023-05-10T22:35:27.378Z,14.24
2023-05-10T22:37:54.426Z,14.28
2023-05-10T22:40:21.656Z,14.34
2023-05-10T22:42:48.508Z,14.30
2023-05-10T22:45:15.636Z,14.30
2023-05-10T22:47:43.082Z,14.26
2023-05-10T22:50:12.516Z,14.30
2023-05-10T22:52:40.298Z,14.21
2023-05-10T22:55:07.871Z,13.96
2023-05-10T22:57:35.810Z,14.02
2023-05-10T23:00:05.005Z,14.01
2023-05-10T23:02:32.331Z,14.13
2023-05-10T23:04:59.412Z,14.00
2023-05-10T23:07:26.746Z,13.75
2023-05-10T23:09:53.719Z,13.75
2023-05-10T23:12:20.545Z,13.61
2023-05-10T23:14:47.669Z,13.59
2023-05-10T23:17:15.023Z,13.28
2023-05-10T23:19:42.148Z,13.42
2023-05-10T23:22:10.176Z,13.50
2023-05-10T23:24:37.377Z,13.39
2023-05-10T23:27:05.118Z,13.01
2023-05-10T23:29:32.801Z,12.99
2023-05-10T23:32:00.133Z,12.97
2023-05-10T23:34:27.258Z,12.93
2023-05-10T23:36:54.426Z,12.99
2023-05-10T23:39:21.395Z,13.06
2023-05-10T23:41:48.226Z,13.04
2023-05-10T23:44:15.708Z,13.10
2023-05-10T23:46:42.680Z,12.96
2023-05-10T23:49:09.890Z,12.85
2023-05-10T23:51:37.156Z,12.65
2023-05-10T23:54:04.335Z,12.63
2023-05-10T23:56:31.538Z,12.47
2023-05-10T23:58:58.725Z,12.40
